createdAt,value
2018-01-23T00:01:49.139Z,88.83
2018-01-23T00:04:17.077Z,89.41
2018-01-23T00:06:45.038Z,89.18
2018-01-23T00:09:12.997Z,89.18
2018-01-23T00:11:40.906Z,88.95
2018-01-23T00:14:08.831Z,89.07
2018-01-23T00:16:36.931Z,89.01
2018-01-23T00:19:04.985Z,89.47
2018-01-23T00:21:32.957Z,89.24
2018-01-23T00:24:00.994Z,89.69
2018-01-23T00:26:28.926Z,89.70
2018-01-23T00:28:56.905Z,89.05
2018-01-23T00:31:24.892Z,89.56
2018-01-23T00:33:52.827Z,88.83
2018-01-23T00:36:20.845Z,89.22
2018-01-23T00:38:48.753Z,88.69
2018-01-23T00:41:16.720Z,88.80
2018-01-23T00:43:44.635Z,88.73
2018-01-23T00:46:12.605Z,88.38
2018-01-23T00:48:40.555Z,88.28
2018-01-23T00:51:08.480Z,87.95
2018-01-23T00:53:36.437Z,88.40
2018-01-23T00:56:04.390Z,89.04
2018-01-23T00:58:32.976Z,89.09
2018-01-23T01:01:00.932Z,88.35
2018-01-23T01:03:29.040Z,88.48
2018-01-23T01:05:57.021Z,88.77
2018-01-23T01:08:25.006Z,88.69
2018-01-23T01:10:52.952Z,88.12
2018-01-23T01:13:20.890Z,87.97
2018-01-23T01:15:48.848Z,88.36
2018-01-23T01:18:16.785Z,88.59
2018-01-23T01:20:44.744Z,88.60
2018-01-23T01:23:12.677Z,88.76
2018-01-23T01:25:40.746Z,88.52
2018-01-23T01:28:08.818Z,88.81
2018-01-23T01:30:36.791Z,88.47
2018-01-23T01:33:04.741Z,88.26
2018-01-23T01:35:32.729Z,88.93
2018-01-23T01:38:00.719Z,88.82
2018-01-23T01:40:29.163Z,89.28
2018-01-23T01:42:57.124Z,88.58
2018-01-23T01:45:25.103Z,88.89
2018-01-23T01:47:53.038Z,88.79
2018-01-23T01:50:21.005Z,88.77
2018-01-23T01:52:49.416Z,88.98
2018-01-23T01:55:17.385Z,88.43
2018-01-23T01:57:45.319Z,88.58
2018-01-23T02:00:13.243Z,88.57
2018-01-23T02:02:41.236Z,88.85
2018-01-23T02:05:09.157Z,88.99
2018-01-23T02:07:37.166Z,88.25
2018-01-23T02:10:05.093Z,88.14
2018-01-23T02:12:33.033Z,88.41
2018-01-23T02:15:00.980Z,88.61
2018-01-23T02:17:28.913Z,88.76
2018-01-23T02:19:56.919Z,88.64
2018-01-23T02:22:24.958Z,88.37
2018-01-23T02:24:52.916Z,87.66
2018-01-23T02:27:20.849Z,88.46
2018-01-23T02:29:48.773Z,88.30
2018-01-23T02:32:16.752Z,88.82
2018-01-23T02:34:44.704Z,89.00
2018-01-23T02:37:12.653Z,89.15
2018-01-23T02:39:40.569Z,89.47
2018-01-23T02:42:08.574Z,89.09
2018-01-23T02:44:36.528Z,89.15
2018-01-23T02:47:04.456Z,89.19
2018-01-23T02:49:32.489Z,89.34
2018-01-23T02:52:00.438Z,89.29
2018-01-23T02:54:28.350Z,89.73
2018-01-23T02:56:56.277Z,89.93
2018-01-23T02:59:24.313Z,89.63
2018-01-23T03:01:52.265Z,89.86
2018-01-23T03:04:20.213Z,89.71
2018-01-23T03:06:48.129Z,89.93
2018-01-23T03:09:16.065Z,89.92
2018-01-23T03:11:44.222Z,90.37
2018-01-23T03:14:12.155Z,90.32
2018-01-23T03:16:40.181Z,90.24
2018-01-23T03:19:10.109Z,90.04
2018-01-23T03:21:38.033Z,89.73
2018-01-23T03:24:05.980Z,89.76
2018-01-23T03:26:33.999Z,90.13
2018-01-23T03:29:02.009Z,89.90
2018-01-23T03:31:31.138Z,90.11
2018-01-23T03:33:59.100Z,89.38
2018-01-23T03:36:27.035Z,89.28
2018-01-23T03:38:56.592Z,89.47
2018-01-23T03:41:24.770Z,89.18
2018-01-23T03:43:52.753Z,89.31
2018-01-23T03:46:22.096Z,89.30
2018-01-23T03:48:51.832Z,89.31
2018-01-23T03:51:19.795Z,89.09
2018-01-23T03:53:47.721Z,88.96
2018-01-23T03:56:15.663Z,88.92
2018-01-23T03:58:45.011Z,88.93
2018-01-23T04:01:13.070Z,88.28
2018-01-23T04:03:42.809Z,88.38
2018-01-23T04:06:10.761Z,88.34
2018-01-23T04:08:38.834Z,88.31
2018-01-23T04:11:06.770Z,88.66
2018-01-23T04:13:34.701Z,88.47
2018-01-23T04:16:03.717Z,88.30
2018-01-23T04:18:31.702Z,88.30
2018-01-23T04:21:02.771Z,88.51
2018-01-23T04:23:30.804Z,88.26
2018-01-23T04:26:00.236Z,88.14
2018-01-23T04:28:28.330Z,87.91
2018-01-23T04:30:56.271Z,88.31
2018-01-23T04:33:26.585Z,88.02
2018-01-23T04:35:56.298Z,88.06
2018-01-23T04:38:24.294Z,87.90
2018-01-23T04:40:52.237Z,88.22
2018-01-23T04:43:20.230Z,88.22
2018-01-23T04:45:48.154Z,89.71
2018-01-23T04:48:16.294Z,90.46
2018-01-23T04:50:44.241Z,87.32
2018-01-23T04:53:13.064Z,87.32
2018-01-23T04:55:41.021Z,87.48
2018-01-23T04:58:08.966Z,87.07
2018-01-23T05:00:37.015Z,86.61
2018-01-23T05:03:05.474Z,87.53
2018-01-23T05:05:33.466Z,87.93
2018-01-23T05:08:01.610Z,88.06
2018-01-23T05:10:30.142Z,87.90
2018-01-23T05:12:58.106Z,87.57
2018-01-23T05:15:26.057Z,87.63
2018-01-23T05:17:53.993Z,87.38
2018-01-23T05:20:22.020Z,87.82
2018-01-23T05:22:49.957Z,88.46
2018-01-23T05:25:17.906Z,88.12
2018-01-23T05:27:45.829Z,88.13
2018-01-23T05:30:13.767Z,88.05
2018-01-23T05:32:41.717Z,88.06
2018-01-23T05:35:09.637Z,88.10
2018-01-23T05:37:37.675Z,87.54
2018-01-23T05:40:06.008Z,88.11
2018-01-23T05:42:33.960Z,88.52
2018-01-23T05:45:01.902Z,88.60
2018-01-23T05:47:29.891Z,88.34
2018-01-23T05:49:57.898Z,88.51
2018-01-23T05:52:25.923Z,88.32
2018-01-23T05:54:53.842Z,88.10
2018-01-23T05:57:21.762Z,88.80
2018-01-23T05:59:50.303Z,88.50
2018-01-23T06:02:18.257Z,88.88
2018-01-23T06:04:46.286Z,88.29
2018-01-23T06:07:14.222Z,88.13
2018-01-23T06:09:42.165Z,88.63
2018-01-23T06:12:10.158Z,89.12
2018-01-23T06:14:38.126Z,89.44
2018-01-23T06:17:06.052Z,89.21
2018-01-23T06:19:33.981Z,89.00
2018-01-23T06:22:01.947Z,88.90
2018-01-23T06:24:29.936Z,89.47
2018-01-23T06:26:57.870Z,89.14
2018-01-23T06:29:25.817Z,89.41
2018-01-23T06:31:53.765Z,89.28
2018-01-23T06:34:21.714Z,89.88
2018-01-23T06:36:49.683Z,89.38
2018-01-23T06:39:17.619Z,88.18
2018-01-23T06:41:45.602Z,87.40
2018-01-23T06:44:13.674Z,87.37
2018-01-23T06:46:41.703Z,87.86
2018-01-23T06:49:09.697Z,87.83
2018-01-23T06:51:37.667Z,88.80
2018-01-23T06:54:05.608Z,88.29
2018-01-23T06:56:33.569Z,88.80
2018-01-23T06:59:01.558Z,89.12
2018-01-23T07:01:29.549Z,88.97
2018-01-23T07:03:57.484Z,88.73
2018-01-23T07:06:25.469Z,88.86
2018-01-23T07:08:53.371Z,88.55
2018-01-23T07:11:22.312Z,89.24
2018-01-23T07:13:50.680Z,89.04
2018-01-23T07:16:18.682Z,89.56
2018-01-23T07:18:46.625Z,88.70
2018-01-23T07:21:14.770Z,88.15
2018-01-23T07:23:42.761Z,88.83
2018-01-23T07:26:10.789Z,88.69
2018-01-23T07:28:38.758Z,88.23
2018-01-23T07:31:06.726Z,88.54
2018-01-23T07:33:34.653Z,88.39
2018-01-23T07:36:02.588Z,89.37
2018-01-23T07:38:30.540Z,89.41
2018-01-23T07:40:58.490Z,89.83
2018-01-23T07:43:26.709Z,87.88
2018-01-23T07:45:54.653Z,88.31
2018-01-23T07:48:22.619Z,88.67
2018-01-23T07:50:50.580Z,88.92
2018-01-23T07:53:18.602Z,89.30
2018-01-23T07:55:46.481Z,89.41
2018-01-23T07:58:14.428Z,89.56
2018-01-23T08:00:42.362Z,90.02
2018-01-23T08:03:10.310Z,90.38
2018-01-23T08:05:38.233Z,89.10
2018-01-23T08:08:06.170Z,89.67
2018-01-23T08:10:34.117Z,89.07
2018-01-23T08:13:02.062Z,90.36
2018-01-23T08:15:30.008Z,89.99
2018-01-23T08:17:58.433Z,89.92
2018-01-23T08:20:26.356Z,89.60
2018-01-23T08:22:54.301Z,89.58
2018-01-23T08:25:22.233Z,92.85
2018-01-23T08:27:50.162Z,89.77
2018-01-23T08:30:18.095Z,89.60
2018-01-23T08:32:46.046Z,90.26
2018-01-23T08:35:13.971Z,90.20
2018-01-23T08:37:41.924Z,89.52
2018-01-23T08:40:09.858Z,90.37
2018-01-23T08:42:37.791Z,89.95
2018-01-23T08:45:05.742Z,88.99
2018-01-23T08:47:33.722Z,89.33
2018-01-23T08:50:02.444Z,89.55
2018-01-23T08:52:30.372Z,89.68
2018-01-23T08:54:58.330Z,90.30
2018-01-23T08:57:26.366Z,90.60
2018-01-23T08:59:54.327Z,89.91
2018-01-23T09:02:22.297Z,89.99
2018-01-23T09:04:50.252Z,88.86
2018-01-23T09:07:18.163Z,90.13
2018-01-23T09:09:46.139Z,90.96
2018-01-23T09:12:14.074Z,90.92
2018-01-23T09:14:42.022Z,91.06
2018-01-23T09:17:09.954Z,90.35
2018-01-23T09:19:37.921Z,91.58
2018-01-23T09:22:05.869Z,91.32
2018-01-23T09:24:33.876Z,91.52
2018-01-23T09:27:01.793Z,91.21
2018-01-23T09:29:29.795Z,91.82
2018-01-23T09:31:57.718Z,91.85
2018-01-23T09:34:26.673Z,91.06
2018-01-23T09:36:54.674Z,91.59
2018-01-23T09:39:22.621Z,90.98
2018-01-23T09:41:50.563Z,90.85
2018-01-23T09:44:18.534Z,90.95
2018-01-23T09:46:46.506Z,90.97
2018-01-23T09:49:14.425Z,90.96
2018-01-23T09:51:42.447Z,90.87
2018-01-23T09:54:10.403Z,91.10
2018-01-23T09:56:38.329Z,90.95
2018-01-23T09:59:06.278Z,91.25
2018-01-23T10:01:34.217Z,91.50
2018-01-23T10:04:02.189Z,91.11
2018-01-23T10:06:30.126Z,91.37
2018-01-23T10:08:58.069Z,90.93
2018-01-23T10:11:26.128Z,91.22
2018-01-23T10:13:54.074Z,90.87
2018-01-23T10:16:22.086Z,91.08
2018-01-23T10:18:50.127Z,90.82
2018-01-23T10:21:18.205Z,91.03
2018-01-23T10:23:46.179Z,90.07
2018-01-23T10:26:14.146Z,90.35
2018-01-23T10:28:42.145Z,90.29
2018-01-23T10:31:10.104Z,90.22
2018-01-23T10:33:38.053Z,89.84
2018-01-23T10:36:06.005Z,90.01
2018-01-23T10:38:33.933Z,90.78
2018-01-23T10:41:01.878Z,90.62
2018-01-23T10:43:29.794Z,91.18
2018-01-23T10:45:57.741Z,91.15
2018-01-23T10:48:25.729Z,91.07
2018-01-23T10:50:53.675Z,91.15
2018-01-23T10:53:21.611Z,91.29
2018-01-23T10:55:49.592Z,91.45
2018-01-23T10:58:17.563Z,91.26
2018-01-23T11:00:51.114Z,91.46
2018-01-23T11:03:19.087Z,91.38
2018-01-23T11:05:47.280Z,91.31
2018-01-23T11:08:15.201Z,91.28
2018-01-23T11:10:43.133Z,90.77
2018-01-23T11:13:11.090Z,91.21
2018-01-23T11:15:39.025Z,91.36
2018-01-23T11:18:07.062Z,91.07
2018-01-23T11:20:35.464Z,90.17
2018-01-23T11:23:03.474Z,90.40
2018-01-23T11:25:31.424Z,91.05
2018-01-23T11:27:59.358Z,91.28
2018-01-23T11:30:27.309Z,91.71
2018-01-23T11:32:55.220Z,90.45
2018-01-23T11:35:23.217Z,91.18
2018-01-23T11:37:51.853Z,90.67
2018-01-23T11:40:19.906Z,91.38
2018-01-23T11:42:47.882Z,91.66
2018-01-23T11:45:15.901Z,92.08
2018-01-23T11:47:43.861Z,92.69
2018-01-23T11:50:11.837Z,92.76
2018-01-23T11:52:39.750Z,93.11
2018-01-23T11:55:07.670Z,92.37
2018-01-23T11:57:35.648Z,92.72
2018-01-23T12:00:03.577Z,92.64
2018-01-23T12:02:31.515Z,92.20
2018-01-23T12:04:59.428Z,92.28
2018-01-23T12:07:27.486Z,92.37
2018-01-23T12:09:55.511Z,92.31
2018-01-23T12:12:23.469Z,92.72
2018-01-23T12:14:51.483Z,92.55
2018-01-23T12:17:19.633Z,92.68
2018-01-23T12:19:47.588Z,93.00
2018-01-23T12:22:15.523Z,92.43
2018-01-23T12:24:43.474Z,93.01
2018-01-23T12:27:11.460Z,93.17
2018-01-23T12:29:39.398Z,93.53
2018-01-23T12:32:07.328Z,94.07
2018-01-23T12:34:35.279Z,94.28
2018-01-23T12:37:03.246Z,94.67
2018-01-23T12:39:31.433Z,94.30
2018-01-23T12:41:59.393Z,94.26
2018-01-23T12:44:27.309Z,95.20
2018-01-23T12:46:55.265Z,94.35
2018-01-23T12:49:23.187Z,95.06
2018-01-23T12:51:51.141Z,95.25
2018-01-23T12:54:19.134Z,95.23
2018-01-23T12:56:47.113Z,95.04
2018-01-23T12:59:15.069Z,95.19
2018-01-23T13:01:43.009Z,95.46
2018-01-23T13:04:10.996Z,95.26
2018-01-23T13:06:38.934Z,94.59
2018-01-23T13:09:06.930Z,94.45
2018-01-23T13:11:34.909Z,94.49
2018-01-23T13:14:03.062Z,94.48
2018-01-23T13:16:31.022Z,94.83
2018-01-23T13:18:59.036Z,95.30
2018-01-23T13:21:27.000Z,95.09
2018-01-23T13:23:55.155Z,95.17
2018-01-23T13:26:23.218Z,95.59
2018-01-23T13:28:51.163Z,95.04
2018-01-23T13:31:19.137Z,94.95
2018-01-23T13:33:47.133Z,95.07
2018-01-23T13:36:15.081Z,94.82
2018-01-23T13:38:43.135Z,95.01
2018-01-23T13:41:11.107Z,96.56
2018-01-23T13:43:39.090Z,95.79
2018-01-23T13:46:07.021Z,95.17
2018-01-23T13:48:34.964Z,94.29
2018-01-23T13:51:02.916Z,93.60
2018-01-23T13:53:30.866Z,93.17
2018-01-23T13:55:58.841Z,93.90
2018-01-23T13:58:26.848Z,94.77
2018-01-23T14:00:54.776Z,95.60
2018-01-23T14:03:22.856Z,96.13
2018-01-23T14:05:51.023Z,96.14
2018-01-23T14:08:19.009Z,96.62
2018-01-23T14:10:47.205Z,96.64
2018-01-23T14:13:15.173Z,96.71
2018-01-23T14:15:43.166Z,97.37
2018-01-23T14:18:11.111Z,97.22
2018-01-23T14:20:39.035Z,97.36
2018-01-23T14:23:07.280Z,98.01
2018-01-23T14:25:35.225Z,97.75
2018-01-23T14:28:03.370Z,97.23
2018-01-23T14:30:31.299Z,96.78
2018-01-23T14:32:59.374Z,97.21
2018-01-23T14:35:27.326Z,96.97
2018-01-23T14:37:55.251Z,98.15
2018-01-23T14:40:23.204Z,98.56
2018-01-23T14:42:51.138Z,98.58
2018-01-23T14:45:19.085Z,98.44
2018-01-23T14:47:47.153Z,98.14
2018-01-23T14:50:15.123Z,98.48
2018-01-23T14:52:43.065Z,98.71
2018-01-23T14:55:11.067Z,98.87
2018-01-23T14:57:39.027Z,99.28
2018-01-23T15:00:06.955Z,99.07
2018-01-23T15:02:34.929Z,98.59
2018-01-23T15:05:02.870Z,99.10
2018-01-23T15:07:30.786Z,99.29
2018-01-23T15:09:58.781Z,99.02
2018-01-23T15:12:26.682Z,99.48
2018-01-23T15:14:54.649Z,99.74
2018-01-23T15:17:22.597Z,99.88
2018-01-23T15:19:50.528Z,99.81
2018-01-23T15:22:18.562Z,99.77
2018-01-23T15:24:46.533Z,99.58
2018-01-23T15:27:14.699Z,99.87
2018-01-23T15:29:42.675Z,99.56
2018-01-23T15:32:10.705Z,99.51
2018-01-23T15:34:38.729Z,99.64
2018-01-23T15:37:06.701Z,99.33
2018-01-23T15:39:34.655Z,99.38
2018-01-23T15:42:02.698Z,99.58
2018-01-23T15:44:30.697Z,99.46
2018-01-23T15:46:58.685Z,99.13
2018-01-23T15:49:26.618Z,98.42
2018-01-23T15:51:54.568Z,97.74
2018-01-23T15:54:22.486Z,97.23
2018-01-23T15:56:50.433Z,97.42
2018-01-23T15:59:18.370Z,98.27
2018-01-23T16:01:46.312Z,98.36
2018-01-23T16:04:14.273Z,98.32
2018-01-23T16:06:42.230Z,98.27
2018-01-23T16:09:10.189Z,98.07
2018-01-23T16:11:38.107Z,98.48
2018-01-23T16:14:06.076Z,98.09
2018-01-23T16:16:34.047Z,98.45
2018-01-23T16:19:01.975Z,98.68
2018-01-23T16:21:29.913Z,98.69
2018-01-23T16:23:57.887Z,99.33
2018-01-23T16:26:25.856Z,99.22
2018-01-23T16:28:53.797Z,99.53
2018-01-23T16:31:21.738Z,99.52
2018-01-23T16:33:49.679Z,99.32
2018-01-23T16:36:19.720Z,99.38
2018-01-23T16:38:47.893Z,99.67
2018-01-23T16:41:15.893Z,99.43
2018-01-23T16:43:43.912Z,99.40
2018-01-23T16:46:11.843Z,99.31
2018-01-23T16:48:39.804Z,99.32
2018-01-23T16:51:08.808Z,99.42
2018-01-23T16:53:36.759Z,99.21
2018-01-23T16:56:04.675Z,99.16
2018-01-23T16:58:32.636Z,98.77
2018-01-23T17:01:00.639Z,99.03
2018-01-23T17:03:28.603Z,99.11
2018-01-23T17:05:56.586Z,98.95
2018-01-23T17:08:24.619Z,98.74
2018-01-23T17:10:52.658Z,98.87
2018-01-23T17:13:25.147Z,98.83
2018-01-23T17:15:55.187Z,98.69
2018-01-23T17:18:23.133Z,98.38
2018-01-23T17:20:51.557Z,98.66
2018-01-23T17:23:19.587Z,98.75
2018-01-23T17:25:47.638Z,98.48
2018-01-23T17:28:15.648Z,98.33
2018-01-23T17:30:43.694Z,98.52
2018-01-23T17:33:11.817Z,98.03
2018-01-23T17:35:39.835Z,98.24
2018-01-23T17:38:07.909Z,98.32
2018-01-23T17:40:35.860Z,98.05
2018-01-23T17:43:04.705Z,97.96
2018-01-23T17:45:32.637Z,97.70
2018-01-23T17:48:00.622Z,98.04
2018-01-23T17:50:28.670Z,97.85
2018-01-23T17:52:56.667Z,97.84
2018-01-23T17:55:24.607Z,97.89
2018-01-23T17:57:52.534Z,97.96
2018-01-23T18:00:20.813Z,98.49
2018-01-23T18:02:48.765Z,98.37
2018-01-23T18:05:16.733Z,97.76
2018-01-23T18:07:45.598Z,98.00
2018-01-23T18:10:13.566Z,98.23
2018-01-23T18:12:41.510Z,98.06
2018-01-23T18:15:10.355Z,98.23
2018-01-23T18:17:38.423Z,98.43
2018-01-23T18:20:06.317Z,98.00
2018-01-23T18:22:34.342Z,98.07
2018-01-23T18:25:02.254Z,97.98
2018-01-23T18:27:30.225Z,98.04
2018-01-23T18:29:58.285Z,98.10
2018-01-23T18:32:26.246Z,97.88
2018-01-23T18:34:54.213Z,97.78
2018-01-23T18:37:22.145Z,97.42
2018-01-23T18:39:50.262Z,97.97
2018-01-23T18:42:18.342Z,97.89
2018-01-23T18:44:46.264Z,97.74
2018-01-23T18:47:14.231Z,97.45
2018-01-23T18:49:42.274Z,97.42
2018-01-23T18:52:10.508Z,97.78
2018-01-23T18:54:38.424Z,98.29
2018-01-23T18:57:06.424Z,98.22
2018-01-23T18:59:34.351Z,97.94
2018-01-23T19:02:02.404Z,97.71
2018-01-23T19:04:30.943Z,97.61
2018-01-23T19:06:58.882Z,97.45
2018-01-23T19:09:26.901Z,97.73
2018-01-23T19:11:54.989Z,96.78
2018-01-23T19:14:22.930Z,96.16
2018-01-23T19:16:50.920Z,96.17
2018-01-23T19:19:18.840Z,96.35
2018-01-23T19:21:46.857Z,96.96
2018-01-23T19:24:14.864Z,96.80
2018-01-23T19:26:42.778Z,96.23
2018-01-23T19:29:10.732Z,96.08
2018-01-23T19:31:38.676Z,96.01
2018-01-23T19:34:06.601Z,95.78
2018-01-23T19:36:34.661Z,95.41
2018-01-23T19:39:02.627Z,95.11
2018-01-23T19:41:30.591Z,94.80
2018-01-23T19:43:58.515Z,94.75
2018-01-23T19:46:27.409Z,94.85
2018-01-23T19:48:57.474Z,94.29
2018-01-23T19:51:25.578Z,94.17
2018-01-23T19:53:53.883Z,94.32
2018-01-23T19:56:21.958Z,94.26
2018-01-23T19:58:50.244Z,93.72
2018-01-23T20:01:18.177Z,93.71
2018-01-23T20:03:46.188Z,93.45
2018-01-23T20:06:14.163Z,93.47
2018-01-23T20:08:42.113Z,93.40
2018-01-23T20:11:10.074Z,92.80
2018-01-23T20:13:37.999Z,92.82
2018-01-23T20:16:06.068Z,92.73
2018-01-23T20:18:33.996Z,92.50
2018-01-23T20:21:01.976Z,92.32
2018-01-23T20:23:29.948Z,92.66
2018-01-23T20:25:57.865Z,93.35
2018-01-23T20:28:25.865Z,92.85
2018-01-23T20:30:53.881Z,92.75
2018-01-23T20:33:21.895Z,92.98
2018-01-23T20:35:49.897Z,93.06
2018-01-23T20:38:17.909Z,92.53
2018-01-23T20:40:45.915Z,92.37
2018-01-23T20:43:13.857Z,92.50
2018-01-23T20:45:42.938Z,92.66
2018-01-23T20:48:11.010Z,93.33
2018-01-23T20:50:38.978Z,94.43
2018-01-23T20:53:07.102Z,94.20
2018-01-23T20:55:35.037Z,94.27
2018-01-23T20:58:03.007Z,94.51
2018-01-23T21:00:31.748Z,95.01
2018-01-23T21:02:59.742Z,94.90
2018-01-23T21:05:28.532Z,94.41
2018-01-23T21:07:56.478Z,94.53
2018-01-23T21:10:24.504Z,95.23
2018-01-23T21:12:52.545Z,95.09
2018-01-23T21:15:20.450Z,94.49
2018-01-23T21:17:48.421Z,95.04
2018-01-23T21:20:16.352Z,94.39
2018-01-23T21:22:44.418Z,94.66
2018-01-23T21:25:12.598Z,94.74
2018-01-23T21:27:40.542Z,94.83
2018-01-23T21:30:08.571Z,95.19
2018-01-23T21:32:36.571Z,95.26
2018-01-23T21:35:04.549Z,95.51
2018-01-23T21:37:32.466Z,95.04
2018-01-23T21:40:00.397Z,95.09
2018-01-23T21:42:28.359Z,94.63
2018-01-23T21:44:56.325Z,94.27
2018-01-23T21:47:24.413Z,94.18
2018-01-23T21:49:52.353Z,94.19
2018-01-23T21:52:20.277Z,94.43
2018-01-23T21:54:49.167Z,94.16
2018-01-23T21:57:17.117Z,93.85
2018-01-23T21:59:45.082Z,93.14
2018-01-23T22:02:13.145Z,93.22
2018-01-23T22:04:41.529Z,93.37
2018-01-23T22:07:09.532Z,93.17
2018-01-23T22:09:37.477Z,93.95
2018-01-23T22:12:05.409Z,94.59
2018-01-23T22:14:33.463Z,94.94
2018-01-23T22:17:01.385Z,95.16
2018-01-23T22:19:29.340Z,95.76
2018-01-23T22:21:57.497Z,95.91
2018-01-23T22:24:25.436Z,96.50
2018-01-23T22:26:53.531Z,96.77
2018-01-23T22:29:21.461Z,96.71
2018-01-23T22:31:49.409Z,97.14
2018-01-23T22:34:17.381Z,97.25
2018-01-23T22:36:45.310Z,97.40
2018-01-23T22:39:13.242Z,97.72
2018-01-23T22:41:41.196Z,97.84
2018-01-23T22:44:09.208Z,98.35
2018-01-23T22:46:37.171Z,98.18
2018-01-23T22:49:05.097Z,97.77
2018-01-23T22:51:33.015Z,97.91
2018-01-23T22:54:01.060Z,97.93
2018-01-23T22:56:28.985Z,97.68
2018-01-23T22:58:56.935Z,97.71
2018-01-23T23:01:25.014Z,97.42
2018-01-23T23:03:52.968Z,97.41
2018-01-23T23:06:20.903Z,97.62
2018-01-23T23:08:48.903Z,97.61
2018-01-23T23:11:16.796Z,97.30
2018-01-23T23:13:44.890Z,97.39
2018-01-23T23:16:12.848Z,97.81
2018-01-23T23:18:40.966Z,97.36
2018-01-23T23:21:08.899Z,97.43
2018-01-23T23:23:36.890Z,97.05
2018-01-23T23:26:04.828Z,97.22
2018-01-23T23:28:32.846Z,97.12
2018-01-23T23:31:00.969Z,97.35
2018-01-23T23:33:29.068Z,97.00
2018-01-23T23:35:57.171Z,97.43
2018-01-23T23:38:25.106Z,96.80
2018-01-23T23:40:53.051Z,97.21
2018-01-23T23:43:20.978Z,97.10
2018-01-23T23:45:48.906Z,97.20
2018-01-23T23:48:16.913Z,97.00
2018-01-23T23:50:44.831Z,96.78
2018-01-23T23:53:12.773Z,96.62
2018-01-23T23:55:40.722Z,96.58
2018-01-23T23:58:08.738Z,96.78
